Time;durP1;ratioP1;P1;durP2;ratioP2;P2;SDS_P1;SDS_P2;PMS_P1;PMS_P2;Temp;Humidity;BMP_temperature;BMP_pressure;BME280_temperature;BME280_humidity;BME280_pressure;Samples;Min_cycle;Max_cycle;Signal;HPM_P1;HPM_P2
2022/05/10 00:01:32;;;;;;;6.87;5.53;;;15.50;99.90;;;;;;10360800;28;20223;-71
2022/05/10 00:06:38;;;;;;;5.90;5.40;;;15.40;99.90;;;;;;10365139;28;20231;-71
2022/05/10 00:11:38;;;;;;;6.70;6.03;;;15.30;99.90;;;;;;10360597;28;20301;-71
2022/05/10 00:16:42;;;;;;;9.40;6.00;;;15.20;99.90;;;;;;10377795;28;20318;-71
2022/05/10 00:21:43;;;;;;;6.97;5.53;;;15.20;99.90;;;;;;10359854;28;20235;-72
2022/05/10 00:26:43;;;;;;;6.80;6.10;;;15.10;99.90;;;;;;10366772;28;20228;-71
2022/05/10 00:31:44;;;;;;;6.40;5.40;;;15.20;99.90;;;;;;10367107;28;20378;-71
2022/05/10 00:36:45;;;;;;;7.27;5.87;;;15.20;99.90;;;;;;10359299;28;20581;-72
2022/05/10 00:42:06;;;;;;;6.47;5.87;;;15.10;99.90;;;;;;10365926;28;20748;-71
2022/05/10 00:47:19;;;;;;;6.10;5.50;;;15.10;99.90;;;;;;10361216;28;20231;-71
2022/05/10 00:52:37;;;;;;;6.10;5.50;;;15.10;99.90;;;;;;10361835;28;20263;-70
2022/05/10 00:57:53;;;;;;;7.23;5.73;;;15.00;99.90;;;;;;10364038;28;20260;-70
2022/05/10 01:03:14;;;;;;;6.53;5.93;;;14.90;99.90;;;;;;10355919;28;20306;-69
2022/05/10 01:08:37;;;;;;;7.33;5.83;;;14.80;99.90;;;;;;10361572;28;20258;-69
2022/05/10 01:14:06;;;;;;;7.70;6.00;;;14.80;99.90;;;;;;10343412;28;20233;-70
2022/05/10 01:19:07;;;;;;;7.07;5.47;;;14.70;99.90;;;;;;10352562;28;20226;-71
2022/05/10 01:24:19;;;;;;;7.30;6.43;;;14.60;99.90;;;;;;10364114;28;20225;-70
2022/05/10 01:29:39;;;;;;;7.13;5.77;;;14.50;99.90;;;;;;10358599;28;20221;-70
2022/05/10 01:34:41;;;;;;;7.20;6.27;;;14.40;99.90;;;;;;10352348;28;20326;-70
2022/05/10 01:39:50;;;;;;;8.63;6.67;;;14.30;99.90;;;;;;10354381;28;20748;-70
2022/05/10 01:45:24;;;;;;;7.27;5.70;;;14.20;99.90;;;;;;10334131;28;20307;-70
2022/05/10 01:50:37;;;;;;;7.20;6.47;;;14.20;99.90;;;;;;10351142;28;20293;-72
2022/05/10 01:55:44;;;;;;;7.73;6.13;;;14.10;99.90;;;;;;10362279;28;20236;-71
2022/05/10 02:00:52;;;;;;;9.27;6.17;;;14.10;99.90;;;;;;10331286;28;20710;-71
2022/05/10 02:06:30;;;;;;;6.37;5.77;;;14.10;99.90;;;;;;10349187;28;20230;-71
2022/05/10 02:11:33;;;;;;;6.80;6.20;;;14.20;99.90;;;;;;10356222;28;20226;-71
2022/05/10 02:16:53;;;;;;;6.90;6.30;;;14.10;99.90;;;;;;10361808;28;20225;-71
2022/05/10 02:22:08;;;;;;;6.30;5.37;;;14.00;99.90;;;;;;10356191;28;20229;-70
2022/05/10 02:27:20;;;;;;;8.77;6.47;;;14.00;99.90;;;;;;10355225;28;20244;-71
2022/05/10 02:37:53;;;;;;;6.63;5.93;;;13.90;99.90;;;;;;10347350;28;20684;-71
2022/05/10 02:42:54;;;;;;;7.10;5.83;;;13.80;99.90;;;;;;10346020;28;20244;-70
2022/05/10 02:47:54;;;;;;;7.13;6.43;;;13.70;99.90;;;;;;10346001;28;20312;-70
2022/05/10 02:52:55;;;;;;;9.83;6.33;;;13.70;99.90;;;;;;10348551;28;20697;-71
2022/05/10 02:58:00;;;;;;;8.60;6.50;;;13.70;99.90;;;;;;10355309;28;20319;-72
2022/05/10 03:03:13;;;;;;;7.87;6.90;;;13.70;99.90;;;;;;10330786;28;20237;-72
2022/05/10 03:08:14;;;;;;;8.87;6.50;;;13.60;99.90;;;;;;10354219;28;20235;-71
2022/05/10 03:13:15;;;;;;;7.40;6.50;;;13.60;99.90;;;;;;10348205;28;20310;-71
2022/05/10 03:18:16;;;;;;;6.93;6.23;;;13.60;99.90;;;;;;10338634;28;20728;-70
2022/05/10 03:23:16;;;;;;;7.63;5.93;;;13.50;99.90;;;;;;10358544;28;20210;-70
2022/05/10 03:28:17;;;;;;;6.93;6.23;;;13.50;99.90;;;;;;10351639;28;20319;-71
2022/05/10 03:33:18;;;;;;;6.80;6.10;;;13.40;99.90;;;;;;10342174;28;20213;-71
2022/05/10 03:38:18;;;;;;;7.50;6.80;;;13.40;99.90;;;;;;10349182;28;20217;-69
2022/05/10 03:43:19;;;;;;;7.97;6.93;;;13.40;99.90;;;;;;10341035;28;20213;-70
2022/05/10 03:48:20;;;;;;;7.27;6.47;;;13.50;99.90;;;;;;10347873;28;20220;-70
2022/05/10 03:53:20;;;;;;;7.50;6.70;;;13.40;99.90;;;;;;10350629;28;20304;-70
2022/05/10 03:58:21;;;;;;;7.40;6.70;;;13.40;99.90;;;;;;10349426;28;20225;-70
2022/05/10 04:03:22;;;;;;;7.67;6.87;;;13.30;99.90;;;;;;10350760;28;20213;-70
2022/05/10 04:08:23;;;;;;;10.20;7.20;;;13.40;99.90;;;;;;10336452;28;20249;-70
2022/05/10 04:13:24;;;;;;;7.07;6.37;;;13.40;99.90;;;;;;10359231;28;20218;-70
2022/05/10 04:18:26;;;;;;;7.77;6.97;;;13.60;99.90;;;;;;10354652;28;20945;-70
2022/05/10 04:23:26;;;;;;;8.00;6.63;;;13.70;99.90;;;;;;10345618;28;20217;-69
2022/05/10 04:28:27;;;;;;;7.70;5.80;;;13.80;99.90;;;;;;10350780;28;20278;-69
2022/05/10 04:33:28;;;;;;;6.77;6.00;;;13.90;99.90;;;;;;10347256;28;20222;-70
2022/05/10 04:38:28;;;;;;;6.57;5.90;;;14.10;99.90;;;;;;10349374;28;20213;-69
2022/05/10 04:43:29;;;;;;;7.20;5.97;;;14.30;99.90;;;;;;10343126;28;20766;-69
2022/05/10 04:48:30;;;;;;;9.40;6.43;;;14.60;99.90;;;;;;10338508;28;20214;-69
2022/05/10 04:53:30;;;;;;;8.97;6.00;;;14.80;99.90;;;;;;10351850;28;20224;-69
2022/05/10 04:58:31;;;;;;;6.87;6.17;;;15.10;99.90;;;;;;10356560;28;20219;-70
2022/05/10 05:03:33;;;;;;;11.10;6.70;;;15.30;99.90;;;;;;10343363;28;20224;-71
2022/05/10 05:08:33;;;;;;;7.50;5.57;;;15.50;99.90;;;;;;10340027;28;20653;-70
2022/05/10 05:13:35;;;;;;;12.03;5.90;;;15.90;99.90;;;;;;10362360;28;20206;-70
2022/05/10 05:18:35;;;;;;;6.83;5.80;;;16.30;99.90;;;;;;10355697;28;20228;-71
2022/05/10 05:23:36;;;;;;;7.03;5.70;;;16.70;99.90;;;;;;10378746;28;20227;-69
2022/05/10 05:28:37;;;;;;;7.37;6.40;;;17.10;99.90;;;;;;10372065;28;20215;-70
2022/05/10 05:33:41;;;;;;;6.23;5.63;;;17.40;99.90;;;;;;10360440;28;20232;-70
2022/05/10 05:38:41;;;;;;;7.87;5.93;;;17.60;99.90;;;;;;10373060;28;20215;-70
2022/05/10 05:43:42;;;;;;;10.63;7.40;;;17.80;99.90;;;;;;10358452;28;20223;-70
2022/05/10 05:48:46;;;;;;;9.97;6.50;;;18.20;99.90;;;;;;10357129;28;20221;-72
2022/05/10 05:53:47;;;;;;;18.03;7.60;;;18.50;99.90;;;;;;10349058;28;20218;-69
2022/05/10 05:58:49;;;;;;;6.30;5.70;;;18.80;99.90;;;;;;10348962;28;20244;-70
2022/05/10 06:03:51;;;;;;;7.50;6.10;;;19.70;99.90;;;;;;10351159;28;20735;-69
2022/05/10 06:08:52;;;;;;;8.70;6.90;;;20.80;99.90;;;;;;10353618;28;20313;-69
2022/05/10 06:13:52;;;;;;;10.40;6.60;;;21.70;99.90;;;;;;10362754;28;20226;-69
2022/05/10 06:18:53;;;;;;;7.30;5.70;;;22.50;99.90;;;;;;10348979;28;20587;-70
2022/05/10 06:23:54;;;;;;;7.10;5.40;;;24.20;96.60;;;;;;10355389;28;20348;-70
2022/05/10 06:28:54;;;;;;;6.67;5.00;;;26.70;87.20;;;;;;10348060;28;20626;-70
2022/05/10 06:33:55;;;;;;;11.10;5.13;;;28.30;71.70;;;;;;10347736;28;20257;-71
2022/05/10 06:38:55;;;;;;;7.07;5.13;;;29.80;62.00;;;;;;10345337;28;20217;-70
2022/05/10 06:43:56;;;;;;;6.27;4.70;;;31.20;55.50;;;;;;10346465;28;20252;-69
2022/05/10 06:48:56;;;;;;;8.07;5.30;;;32.10;51.80;;;;;;10354105;28;20248;-70
2022/05/10 06:53:57;;;;;;;8.37;4.80;;;32.30;49.20;;;;;;10355636;28;20225;-69
2022/05/10 06:58:58;;;;;;;10.70;4.53;;;32.50;47.40;;;;;;10347743;28;20901;-70
2022/05/10 07:03:59;;;;;;;7.53;4.97;;;32.60;46.20;;;;;;10340235;28;20225;-69
2022/05/10 07:08:59;;;;;;;7.70;5.20;;;31.90;47.20;;;;;;10357098;28;20368;-69
2022/05/10 07:14:00;;;;;;;10.40;4.73;;;31.70;47.50;;;;;;10359322;28;20243;-70
2022/05/10 07:19:00;;;;;;;12.43;5.60;;;32.40;46.60;;;;;;10365387;28;20817;-71
2022/05/10 07:24:01;;;;;;;16.70;5.40;;;33.10;44.40;;;;;;10366768;28;20308;-72
2022/05/10 07:29:02;;;;;;;13.33;5.97;;;32.70;45.30;;;;;;10362539;28;20283;-70
2022/05/10 07:34:02;;;;;;;8.23;5.53;;;32.40;44.10;;;;;;10362009;28;20251;-72
2022/05/10 07:39:06;;;;;;;7.93;5.07;;;31.80;45.60;;;;;;10364386;28;20232;-69
2022/05/10 07:44:08;;;;;;;6.60;4.80;;;30.80;47.30;;;;;;10359953;28;20239;-71
2022/05/10 07:49:08;;;;;;;10.30;4.70;;;31.30;46.90;;;;;;10344382;28;20763;-71
2022/05/10 07:54:09;;;;;;;10.93;5.60;;;32.00;46.00;;;;;;10364061;28;20232;-71
2022/05/10 07:59:10;;;;;;;93.93;9.93;;;33.70;43.00;;;;;;10360338;28;20268;-71
2022/05/10 08:04:10;;;;;;;10.57;4.67;;;35.10;40.00;;;;;;10364093;28;20323;-71
2022/05/10 08:09:11;;;;;;;10.13;5.60;;;36.90;38.40;;;;;;10360194;28;20288;-72
2022/05/10 08:14:11;;;;;;;6.70;4.73;;;38.00;35.80;;;;;;10364911;28;20639;-72
2022/05/10 08:19:12;;;;;;;10.50;5.30;;;37.70;35.70;;;;;;10365725;28;20642;-71
2022/05/10 08:24:13;;;;;;;8.60;5.30;;;38.30;35.50;;;;;;10372275;28;20228;-71
2022/05/10 08:29:13;;;;;;;10.33;5.60;;;39.00;34.30;;;;;;10368557;28;20229;-71
2022/05/10 08:34:15;;;;;;;11.33;6.20;;;39.70;33.70;;;;;;10370146;28;20942;-70
2022/05/10 08:39:15;;;;;;;8.30;6.27;;;38.90;33.60;;;;;;10365342;28;20218;-70
2022/05/10 08:44:19;;;;;;;7.10;5.90;;;39.10;32.80;;;;;;10369603;28;20217;-70
2022/05/10 08:49:33;;;;;;;7.03;4.83;;;39.80;31.70;;;;;;10354363;28;20230;-70
2022/05/10 08:54:37;;;;;;;6.20;5.60;;;40.20;32.10;;;;;;10332748;28;20233;-71
2022/05/10 08:59:59;;;;;;;9.90;5.40;;;40.40;32.10;;;;;;10363319;28;20217;-72
2022/05/10 09:05:11;;;;;;;9.53;4.97;;;41.00;31.20;;;;;;10367142;28;20227;-71
2022/05/10 09:10:24;;;;;;;5.03;4.50;;;40.40;30.70;;;;;;10371695;28;20279;-70
2022/05/10 09:15:27;;;;;;;5.90;4.47;;;39.70;31.60;;;;;;10373393;28;20252;-71
2022/05/10 09:20:27;;;;;;;17.00;4.90;;;38.80;32.50;;;;;;10366699;28;20291;-72
2022/05/10 09:25:42;;;;;;;8.83;5.07;;;38.00;35.10;;;;;;10368251;28;20271;-71
2022/05/10 09:34:45;;;;;;;6.13;4.83;;;38.20;34.50;;;;;;10369455;28;20734;-70
2022/05/10 09:36:04;;;;;;;8.67;5.17;;;39.00;32.90;;;;;;10368697;28;20634;-71
2022/05/10 09:41:22;;;;;;;7.20;4.50;;;38.30;33.50;;;;;;10371524;28;20302;-70
2022/05/10 09:46:27;;;;;;;7.80;4.53;;;37.10;35.00;;;;;;10371105;28;20498;-70
2022/05/10 09:51:36;;;;;;;9.90;5.33;;;37.70;34.80;;;;;;10371883;28;20348;-71
2022/05/10 09:56:39;;;;;;;8.33;5.20;;;39.20;33.30;;;;;;10371760;28;20237;-70
2022/05/10 10:01:46;;;;;;;14.20;5.47;;;40.90;31.50;;;;;;10371123;28;20224;-71
2022/05/10 10:07:21;;;;;;;9.97;5.70;;;41.90;31.20;;;;;;10370027;28;20293;-71
2022/05/10 10:12:33;;;;;;;6.23;5.10;;;42.50;30.00;;;;;;10305426;28;20225;-70
2022/05/10 10:17:37;;;;;;;9.10;4.80;;;41.30;30.10;;;;;;10369601;28;20228;-70
2022/05/10 10:22:59;;;;;;;8.23;4.60;;;41.10;30.70;;;;;;10367916;28;20225;-70
2022/05/10 10:28:25;;;;;;;6.13;4.90;;;41.50;30.20;;;;;;10358799;28;20442;-70
2022/05/10 10:33:39;;;;;;;9.87;5.33;;;41.30;30.50;;;;;;10342067;28;20359;-70
2022/05/10 10:39:05;;;;;;;10.53;4.97;;;40.90;31.60;;;;;;10355906;28;20238;-70
2022/05/10 10:44:19;;;;;;;11.23;5.63;;;41.10;31.30;;;;;;10352070;28;20252;-70
2022/05/10 10:49:45;;;;;;;13.53;5.47;;;41.00;30.50;;;;;;10368185;28;20214;-70
2022/05/10 10:54:46;;;;;;;9.50;5.45;;;40.60;30.90;;;;;;10344207;28;20435;-69
2022/05/10 11:00:19;;;;;;;10.07;4.83;;;39.50;33.00;;;;;;10368501;28;20217;-71
2022/05/10 11:05:45;;;;;;;8.90;4.90;;;39.60;32.90;;;;;;10359020;28;20229;-74
2022/05/10 11:11:08;;;;;;;10.93;5.30;;;39.40;33.20;;;;;;10359233;28;20225;-71
2022/05/10 11:16:30;;;;;;;4.97;4.13;;;39.00;33.00;;;;;;10359860;28;20604;-71
2022/05/10 11:21:47;;;;;;;8.27;3.90;;;39.60;33.00;;;;;;10336084;28;20255;-72
2022/05/10 11:27:19;;;;;;;9.00;4.53;;;39.40;32.90;;;;;;10360230;28;20213;-70
2022/05/10 11:32:47;;;;;;;20.30;5.27;;;39.50;31.70;;;;;;10355822;28;20630;-70
2022/05/10 11:38:24;;;;;;;7.13;4.70;;;38.90;32.60;;;;;;10362482;28;20304;-69
2022/05/10 11:43:38;;;;;;;6.60;5.10;;;37.20;35.60;;;;;;10352711;28;20224;-71
2022/05/10 11:48:53;;;;;;;6.30;5.57;;;35.20;38.20;;;;;;10367555;28;20229;-70
2022/05/10 11:54:18;;;;;;;6.23;4.87;;;34.00;40.50;;;;;;10359730;28;20227;-70
2022/05/10 11:59:23;;;;;;;5.70;4.67;;;32.90;40.40;;;;;;10364515;28;20302;-71
2022/05/10 12:04:46;;;;;;;7.30;4.00;;;32.20;41.20;;;;;;10359847;28;20312;-71
2022/05/10 12:09:59;;;;;;;4.43;3.63;;;32.10;41.10;;;;;;10361633;28;20272;-71
2022/05/10 12:26:02;;;;;;;5.40;3.73;;;31.60;40.80;;;;;;10352620;28;20217;-69
2022/05/10 12:31:23;;;;;;;4.47;3.97;;;31.60;41.00;;;;;;10365727;28;20213;-70
2022/05/10 12:36:28;;;;;;;4.83;4.07;;;31.50;41.50;;;;;;10365508;28;20316;-70
2022/05/10 12:41:47;;;;;;;5.80;4.17;;;31.50;41.20;;;;;;10361524;28;20221;-70
2022/05/10 12:47:21;;;;;;;4.83;3.80;;;31.30;40.90;;;;;;10361912;28;20284;-71
2022/05/10 12:52:39;;;;;;;4.70;4.27;;;31.20;41.80;;;;;;10363694;28;20226;-69
2022/05/10 12:57:46;;;;;;;4.53;3.90;;;31.20;42.50;;;;;;10343697;28;20220;-71
2022/05/10 13:03:12;;;;;;;5.17;4.23;;;31.30;43.40;;;;;;10358856;28;20213;-71
2022/05/10 13:08:30;;;;;;;5.13;4.20;;;31.30;42.70;;;;;;10353958;28;20344;-70
2022/05/10 13:13:33;;;;;;;8.17;4.43;;;31.50;43.10;;;;;;10360184;28;20225;-70
2022/05/10 13:18:33;;;;;;;8.43;4.33;;;31.50;42.40;;;;;;10370313;28;20292;-71
2022/05/10 13:23:34;;;;;;;9.83;4.70;;;31.40;42.40;;;;;;10366462;28;20271;-71
2022/05/10 13:28:52;;;;;;;5.23;4.70;;;31.30;43.00;;;;;;10355931;28;20775;-71
2022/05/10 13:34:18;;;;;;;5.30;4.50;;;31.00;43.00;;;;;;10367151;28;20235;-71
2022/05/10 13:39:31;;;;;;;6.70;4.30;;;30.60;44.10;;;;;;10368097;28;20206;-70
2022/05/10 13:44:39;;;;;;;7.10;4.40;;;30.40;44.40;;;;;;10367293;28;20225;-72
2022/05/10 13:49:44;;;;;;;6.60;4.80;;;30.40;44.20;;;;;;10355634;28;20750;-71
2022/05/10 13:54:55;;;;;;;11.53;4.53;;;30.40;44.80;;;;;;10329667;28;20249;-71
2022/05/10 13:59:58;;;;;;;7.63;5.27;;;30.30;44.80;;;;;;10347897;28;20864;-71
2022/05/10 14:04:59;;;;;;;6.13;5.20;;;30.20;45.10;;;;;;10349421;28;20308;-72
2022/05/10 14:10:01;;;;;;;6.23;5.00;;;30.00;45.70;;;;;;10354772;28;20312;-71
2022/05/10 14:15:13;;;;;;;10.80;4.87;;;29.90;46.90;;;;;;10349409;28;20337;-71
2022/05/10 14:20:27;;;;;;;7.17;4.90;;;29.80;46.40;;;;;;10362681;28;20210;-72
2022/05/10 14:25:31;;;;;;;34.03;5.73;;;29.50;47.10;;;;;;10349986;28;20209;-71
2022/05/10 14:30:42;;;;;;;6.63;4.43;;;29.20;47.70;;;;;;10351087;28;20225;-72
2022/05/10 14:35:49;;;;;;;8.00;4.83;;;29.20;48.20;;;;;;10353304;28;20703;-71
2022/05/10 14:40:54;;;;;;;6.60;4.70;;;29.20;48.40;;;;;;10352668;28;20221;-72
2022/05/10 14:46:00;;;;;;;6.93;4.63;;;29.00;47.90;;;;;;10339791;28;20236;-71
2022/05/10 14:51:05;;;;;;;6.33;4.67;;;28.90;48.40;;;;;;10353572;28;20885;-70
2022/05/10 14:56:06;;;;;;;7.53;4.30;;;28.80;48.70;;;;;;10346514;28;20276;-71
2022/05/10 15:01:18;;;;;;;10.20;4.30;;;28.90;48.70;;;;;;10349004;28;20247;-71
2022/05/10 15:06:18;;;;;;;7.80;4.87;;;29.00;48.60;;;;;;10350113;28;20225;-71
2022/05/10 15:11:19;;;;;;;8.17;3.83;;;29.10;48.70;;;;;;10334302;28;20221;-73
2022/05/10 15:16:22;;;;;;;4.50;3.80;;;29.10;46.40;;;;;;10358128;28;20248;-74
2022/05/10 15:21:31;;;;;;;7.03;3.70;;;28.90;46.90;;;;;;10353441;28;20229;-72
2022/05/10 15:26:41;;;;;;;3.93;3.53;;;28.90;46.70;;;;;;10355929;28;20424;-73
2022/05/10 15:31:44;;;;;;;5.57;3.33;;;28.80;45.90;;;;;;10360241;28;20270;-73
2022/05/10 15:36:47;;;;;;;5.13;3.30;;;28.90;46.30;;;;;;10355400;28;20311;-72
2022/05/10 15:41:48;;;;;;;8.07;3.10;;;28.70;44.30;;;;;;10362180;28;20233;-71
2022/05/10 15:46:56;;;;;;;6.17;2.93;;;28.50;42.50;;;;;;10336178;28;20217;-70
2022/05/10 15:51:56;;;;;;;4.77;3.30;;;28.50;42.40;;;;;;10366400;28;20739;-70
2022/05/10 15:56:57;;;;;;;8.23;2.90;;;28.50;42.50;;;;;;10368587;28;20227;-69
2022/05/10 16:01:59;;;;;;;7.40;2.60;;;28.20;41.00;;;;;;10366174;28;20301;-69
2022/05/10 16:07:01;;;;;;;3.40;3.10;;;27.90;42.30;;;;;;10341194;28;20671;-70
2022/05/10 16:12:03;;;;;;;7.13;3.00;;;27.60;43.50;;;;;;10359632;28;20311;-70
2022/05/10 16:17:04;;;;;;;7.20;3.30;;;27.50;44.10;;;;;;10352809;28;20766;-71
2022/05/10 16:22:06;;;;;;;3.77;3.00;;;27.40;44.10;;;;;;10366049;28;20228;-70
2022/05/10 16:32:30;;;;;;;4.93;3.00;;;27.00;45.50;;;;;;10331878;28;20217;-70
2022/05/10 16:37:31;;;;;;;8.43;3.43;;;27.10;45.70;;;;;;10353082;28;20229;-69
2022/05/10 16:42:31;;;;;;;3.93;3.07;;;27.10;46.00;;;;;;10345054;28;20226;-71
2022/05/10 16:47:32;;;;;;;8.97;3.37;;;27.00;45.70;;;;;;10348374;28;20243;-71
2022/05/10 16:52:37;;;;;;;5.60;3.40;;;26.80;46.50;;;;;;10373842;28;20225;-71
2022/05/10 16:57:38;;;;;;;5.90;3.50;;;26.60;46.80;;;;;;10373460;28;20239;-70
2022/05/10 17:02:40;;;;;;;4.77;3.40;;;26.50;47.80;;;;;;10361095;28;20441;-71
2022/05/10 17:07:42;;;;;;;9.73;3.70;;;26.40;48.30;;;;;;10360078;28;20233;-72
2022/05/10 17:12:42;;;;;;;4.70;3.50;;;26.30;48.60;;;;;;10358333;28;20228;-70
2022/05/10 17:17:43;;;;;;;5.43;3.53;;;26.30;49.10;;;;;;10366375;28;20716;-72
2022/05/10 17:22:46;;;;;;;5.40;3.67;;;26.30;49.10;;;;;;10348465;28;20228;-71
2022/05/10 17:27:56;;;;;;;4.43;3.63;;;26.10;49.30;;;;;;10358271;28;20240;-71
2022/05/10 17:32:59;;;;;;;6.87;3.80;;;26.00;49.60;;;;;;10363646;28;20315;-71
2022/05/10 17:38:00;;;;;;;5.90;3.70;;;25.90;50.10;;;;;;10361736;28;20317;-72
2022/05/10 17:43:06;;;;;;;7.37;3.83;;;25.80;50.50;;;;;;10361691;28;20231;-71
2022/05/10 17:48:07;;;;;;;5.57;3.93;;;25.80;51.10;;;;;;10355248;28;20288;-71
2022/05/10 17:53:07;;;;;;;4.93;3.43;;;25.60;51.70;;;;;;10365803;28;20720;-72
2022/05/10 17:58:08;;;;;;;8.57;4.27;;;25.50;52.30;;;;;;10353515;28;20338;-71
2022/05/10 18:03:09;;;;;;;4.57;3.50;;;25.20;52.80;;;;;;10374783;28;20228;-72
2022/05/10 18:08:09;;;;;;;11.23;3.97;;;25.00;53.70;;;;;;10353587;28;20228;-71
2022/05/10 18:13:13;;;;;;;8.00;4.10;;;24.90;54.30;;;;;;10353646;28;20371;-71
2022/05/10 18:18:14;;;;;;;9.37;4.23;;;24.80;54.60;;;;;;10365428;28;20777;-71
2022/05/10 18:23:15;;;;;;;6.63;4.43;;;24.60;55.30;;;;;;10358509;28;20221;-72
2022/05/10 18:28:19;;;;;;;7.87;3.60;;;24.50;55.80;;;;;;10349376;28;20307;-71
2022/05/10 18:33:19;;;;;;;7.50;4.20;;;24.20;56.30;;;;;;10360167;28;20308;-73
2022/05/10 18:38:21;;;;;;;5.53;4.23;;;24.00;57.10;;;;;;10371533;28;20617;-72
2022/05/10 18:43:22;;;;;;;5.87;4.10;;;23.90;57.90;;;;;;10349315;28;20288;-73
2022/05/10 18:48:23;;;;;;;6.20;4.20;;;23.70;58.70;;;;;;10341957;28;20902;-72
2022/05/10 18:53:24;;;;;;;5.77;3.83;;;23.50;59.20;;;;;;10362291;28;20217;-72
2022/05/10 18:58:27;;;;;;;12.30;4.63;;;23.30;60.30;;;;;;10357835;28;20226;-72
2022/05/10 19:03:28;;;;;;;6.67;4.57;;;22.90;61.60;;;;;;10350915;28;20217;-72
2022/05/10 19:08:29;;;;;;;4.80;4.10;;;22.70;62.50;;;;;;10371008;28;20225;-72
2022/05/10 19:13:30;;;;;;;4.30;3.90;;;22.50;62.80;;;;;;10331826;28;20213;-72
2022/05/10 19:18:30;;;;;;;8.10;4.00;;;22.40;62.90;;;;;;10364686;28;20224;-73
2022/05/10 19:23:34;;;;;;;4.53;3.70;;;22.20;63.00;;;;;;10365187;28;20210;-72
2022/05/10 19:28:34;;;;;;;5.43;3.80;;;22.10;63.60;;;;;;10363019;28;20726;-72
2022/05/10 19:33:35;;;;;;;7.57;4.23;;;21.90;64.90;;;;;;10370114;28;20213;-72
2022/05/10 19:38:40;;;;;;;4.60;4.17;;;21.80;64.60;;;;;;10370241;28;20702;-72
2022/05/10 19:43:41;;;;;;;4.40;3.80;;;21.60;65.30;;;;;;10369635;28;20248;-73
2022/05/10 19:48:42;;;;;;;6.27;4.00;;;21.40;66.10;;;;;;10359527;28;20225;-72
2022/05/10 19:53:43;;;;;;;5.60;3.67;;;21.20;66.60;;;;;;10360270;28;20221;-71
2022/05/10 19:58:44;;;;;;;5.43;4.40;;;21.10;67.40;;;;;;10341639;28;20659;-72
2022/05/10 20:09:04;;;;;;;5.10;4.00;;;21.00;68.20;;;;;;10357269;28;20465;-70
2022/05/10 20:14:05;;;;;;;5.90;4.13;;;20.90;68.80;;;;;;10337275;28;20684;-72
2022/05/10 20:19:07;;;;;;;4.33;3.93;;;20.80;69.30;;;;;;10370494;28;20225;-73
2022/05/10 20:24:07;;;;;;;5.63;4.50;;;20.70;70.00;;;;;;10364261;28;20217;-73
2022/05/10 20:29:08;;;;;;;5.50;4.23;;;20.60;70.70;;;;;;10357786;28;20221;-71
2022/05/10 20:34:09;;;;;;;6.13;4.97;;;20.50;71.00;;;;;;10371835;28;20228;-73
2022/05/10 20:39:10;;;;;;;6.67;4.10;;;20.40;71.50;;;;;;10375680;28;20239;-73
2022/05/10 20:44:10;;;;;;;5.17;4.43;;;20.40;71.60;;;;;;10346952;28;20214;-71
2022/05/10 20:49:11;;;;;;;5.23;4.70;;;20.30;71.70;;;;;;10368871;28;20245;-74
2022/05/10 20:54:11;;;;;;;4.30;3.90;;;20.30;71.90;;;;;;10341083;28;20210;-73
2022/05/10 20:59:13;;;;;;;6.00;4.20;;;20.30;72.00;;;;;;10369924;28;20221;-74
2022/05/10 21:04:14;;;;;;;5.37;4.00;;;20.30;72.90;;;;;;10371557;28;20221;-74
2022/05/10 21:09:16;;;;;;;4.97;3.93;;;20.30;72.00;;;;;;10376152;28;20221;-73
2022/05/10 21:14:16;;;;;;;7.20;3.80;;;20.30;72.00;;;;;;10370695;28;20689;-73
2022/05/10 21:19:17;;;;;;;5.97;4.17;;;20.30;72.20;;;;;;10365982;28;20253;-72
2022/05/10 21:24:18;;;;;;;6.70;4.30;;;20.30;72.40;;;;;;10364243;28;20244;-72
2022/05/10 21:34:38;;;;;;;4.87;4.33;;;20.20;73.10;;;;;;10355521;28;20222;-73
2022/05/10 21:39:40;;;;;;;4.17;3.77;;;20.10;73.50;;;;;;10366432;28;20209;-72
2022/05/10 21:44:41;;;;;;;5.63;4.23;;;20.10;74.10;;;;;;10366473;28;20296;-74
2022/05/10 21:49:42;;;;;;;8.00;4.30;;;20.00;74.80;;;;;;10357409;28;20301;-73
2022/05/10 21:54:42;;;;;;;5.17;4.37;;;20.00;75.20;;;;;;10367643;28;20229;-72
2022/05/10 21:59:43;;;;;;;4.70;4.07;;;19.90;75.70;;;;;;10375234;28;20225;-73
2022/05/10 22:04:44;;;;;;;5.43;4.00;;;19.80;76.40;;;;;;10365022;28;20232;-73
2022/05/10 22:09:44;;;;;;;4.30;3.90;;;19.80;76.80;;;;;;10352764;28;20243;-73
2022/05/10 22:14:45;;;;;;;9.27;4.60;;;19.70;77.50;;;;;;10358023;28;20751;-73
2022/05/10 22:19:46;;;;;;;4.83;4.33;;;19.70;77.80;;;;;;10365558;28;20213;-73
2022/05/10 22:24:46;;;;;;;6.13;4.10;;;19.60;78.20;;;;;;10368986;28;20220;-73
2022/05/10 22:29:47;;;;;;;6.03;4.23;;;19.60;78.50;;;;;;10357534;28;20209;-73
2022/05/10 22:34:48;;;;;;;6.63;4.03;;;19.60;79.20;;;;;;10362564;28;20240;-72
2022/05/10 22:39:49;;;;;;;6.47;4.33;;;19.50;79.80;;;;;;10362551;28;20218;-71
2022/05/10 22:44:53;;;;;;;5.87;4.40;;;19.40;80.50;;;;;;10328865;28;20231;-73
2022/05/10 22:49:58;;;;;;;4.67;4.23;;;19.40;80.90;;;;;;10368415;28;20225;-72
2022/05/10 22:54:58;;;;;;;8.87;4.13;;;19.40;81.50;;;;;;10366440;28;20244;-73
2022/05/10 22:59:59;;;;;;;4.80;4.40;;;19.40;82.40;;;;;;10358888;28;20232;-72
2022/05/10 23:05:00;;;;;;;4.73;4.27;;;19.30;83.10;;;;;;10350058;28;20904;-73
2022/05/10 23:10:04;;;;;;;5.93;4.70;;;19.20;84.00;;;;;;10355167;28;20230;-72
2022/05/10 23:15:06;;;;;;;5.70;4.80;;;19.20;84.80;;;;;;10360896;28;20252;-72
2022/05/10 23:20:08;;;;;;;6.00;4.40;;;19.20;85.40;;;;;;10357606;28;20300;-73
2022/05/10 23:25:12;;;;;;;5.07;4.40;;;19.20;86.10;;;;;;10368178;28;20193;-73
2022/05/10 23:30:18;;;;;;;7.07;4.40;;;19.20;87.20;;;;;;10347004;28;20814;-73
2022/05/10 23:35:24;;;;;;;5.00;4.50;;;19.20;88.20;;;;;;10367392;28;20221;-73
2022/05/10 23:40:27;;;;;;;7.87;4.90;;;19.20;89.40;;;;;;10349160;28;20235;-72
2022/05/10 23:45:28;;;;;;;5.53;5.03;;;19.20;90.20;;;;;;10369625;28;20228;-72
2022/05/10 23:50:30;;;;;;;5.90;4.90;;;19.20;90.70;;;;;;10356674;28;20229;-73
2022/05/10 23:55:36;;;;;;;5.50;4.90;;;19.20;91.00;;;;;;10366601;28;20242;-72
